createdAt,value
2019-03-12T00:00:28.245Z,3.97
2019-03-12T00:02:56.784Z,5.70
2019-03-12T00:05:25.260Z,5.00
2019-03-12T00:07:53.740Z,4.30
2019-03-12T00:10:22.214Z,3.80
2019-03-12T00:12:50.842Z,5.23
2019-03-12T00:15:19.386Z,6.10
2019-03-12T00:17:47.941Z,4.93
2019-03-12T00:20:16.421Z,4.80
2019-03-12T00:22:44.969Z,3.10
2019-03-12T00:25:13.802Z,5.03
2019-03-12T00:27:42.345Z,4.37
2019-03-12T00:30:11.440Z,2.67
2019-03-12T00:32:40.009Z,6.53
2019-03-12T00:35:08.906Z,5.83
2019-03-12T00:37:37.456Z,4.60
2019-03-12T00:40:08.163Z,4.70
2019-03-12T00:42:36.809Z,4.17
2019-03-12T00:45:08.243Z,6.80
2019-03-12T00:47:36.809Z,4.93
2019-03-12T00:50:07.713Z,4.97
2019-03-12T00:52:36.413Z,3.98
2019-03-12T00:55:06.296Z,4.28
2019-03-12T00:57:34.851Z,4.33
2019-03-12T01:00:04.847Z,6.00
2019-03-12T01:02:33.337Z,4.85
2019-03-12T01:05:01.810Z,3.80
2019-03-12T01:07:30.376Z,5.65
2019-03-12T01:09:58.837Z,5.10
2019-03-12T01:12:27.397Z,4.12
2019-03-12T01:14:55.874Z,4.57
2019-03-12T01:17:24.500Z,5.73
2019-03-12T01:19:53.434Z,4.70
2019-03-12T01:22:22.001Z,5.43
2019-03-12T01:24:50.552Z,5.70
2019-03-12T01:27:19.201Z,6.42
2019-03-12T01:29:48.624Z,3.73
2019-03-12T01:32:17.169Z,5.42
2019-03-12T01:34:45.631Z,5.43
2019-03-12T01:37:14.232Z,6.40
2019-03-12T01:39:42.766Z,5.50
2019-03-12T01:42:11.324Z,4.90
2019-03-12T01:44:39.781Z,3.90
2019-03-12T01:47:08.346Z,5.60
2019-03-12T01:49:36.903Z,6.28
2019-03-12T01:52:05.455Z,4.45
2019-03-12T01:54:35.533Z,4.42
2019-03-12T01:57:04.140Z,4.10
2019-03-12T01:59:32.605Z,6.50
2019-03-12T02:02:01.064Z,6.17
2019-03-12T02:04:29.617Z,4.23
2019-03-12T02:06:58.085Z,4.90
2019-03-12T02:09:26.736Z,6.27
2019-03-12T02:11:55.209Z,3.60
2019-03-12T02:14:25.814Z,4.40
2019-03-12T02:16:54.356Z,4.20
2019-03-12T02:19:22.918Z,4.60
2019-03-12T02:21:51.517Z,3.67
2019-03-12T02:24:20.084Z,7.87
2019-03-12T02:26:48.621Z,4.87
2019-03-12T02:29:17.257Z,5.05
2019-03-12T02:31:45.816Z,6.20
2019-03-12T02:34:14.450Z,4.40
2019-03-12T02:36:43.053Z,5.90
2019-03-12T02:39:11.681Z,7.13
2019-03-12T02:41:40.216Z,5.20
2019-03-12T02:44:08.805Z,6.40
2019-03-12T02:46:37.389Z,4.60
2019-03-12T02:49:09.397Z,6.23
2019-03-12T02:51:36.739Z,4.40
2019-03-12T02:54:05.300Z,7.13
2019-03-12T02:56:33.863Z,6.50
2019-03-12T02:59:02.407Z,7.53
2019-03-12T03:01:30.953Z,5.60
2019-03-12T03:03:59.509Z,4.10
2019-03-12T03:06:29.693Z,6.72
2019-03-12T03:08:58.174Z,6.78
2019-03-12T03:11:26.837Z,5.08
2019-03-12T03:13:55.422Z,6.50
2019-03-12T03:16:24.601Z,7.80
2019-03-12T03:18:53.409Z,4.72
2019-03-12T03:21:22.051Z,5.23
2019-03-12T03:23:50.611Z,8.00
2019-03-12T03:26:19.201Z,7.03
2019-03-12T03:28:47.744Z,10.23
2019-03-12T03:31:16.307Z,7.67
2019-03-12T03:33:44.913Z,5.58
2019-03-12T03:36:13.433Z,7.70
2019-03-12T03:38:42.000Z,9.25
2019-03-12T03:41:10.546Z,5.33
2019-03-12T03:43:39.143Z,7.40
2019-03-12T03:46:07.752Z,6.17
2019-03-12T03:48:36.648Z,9.25
2019-03-12T03:51:05.226Z,7.35
2019-03-12T03:53:33.859Z,6.92
2019-03-12T03:56:02.402Z,9.53
2019-03-12T03:58:30.964Z,7.95
2019-03-12T04:00:59.771Z,7.17
2019-03-12T04:03:28.378Z,7.37
2019-03-12T04:05:57.017Z,6.33
2019-03-12T04:08:25.561Z,4.97
2019-03-12T04:10:54.130Z,8.70
2019-03-12T04:13:22.671Z,4.90
2019-03-12T04:15:51.515Z,8.93
2019-03-12T04:18:20.057Z,5.00
2019-03-12T04:20:48.696Z,7.93
2019-03-12T04:23:17.264Z,7.03
2019-03-12T04:25:45.805Z,3.90
2019-03-12T04:28:14.351Z,6.62
2019-03-12T04:30:42.898Z,6.40
2019-03-12T04:33:47.202Z,6.85
2019-03-12T04:36:15.765Z,9.10
2019-03-12T04:38:44.227Z,6.33
2019-03-12T04:41:12.717Z,7.33
2019-03-12T04:43:41.250Z,7.20
2019-03-12T04:46:09.746Z,5.35
2019-03-12T04:48:38.331Z,6.07
2019-03-12T04:51:06.888Z,5.72
2019-03-12T04:53:37.615Z,5.75
2019-03-12T04:56:05.655Z,7.47
2019-03-12T04:58:34.305Z,7.00
2019-03-12T05:01:02.808Z,6.10
2019-03-12T05:03:31.357Z,7.20
2019-03-12T05:05:59.922Z,7.30
2019-03-12T05:08:28.524Z,6.53
2019-03-12T05:10:57.109Z,11.08
2019-03-12T05:13:25.649Z,10.50
2019-03-12T05:15:54.212Z,9.48
2019-03-12T05:18:22.940Z,11.00
2019-03-12T05:20:52.401Z,14.50
2019-03-12T05:23:20.945Z,12.80
2019-03-12T05:25:49.443Z,9.88
2019-03-12T05:28:18.005Z,14.63
2019-03-12T05:30:46.519Z,10.08
2019-03-12T05:33:15.069Z,10.43
2019-03-12T05:35:43.573Z,18.10
2019-03-12T05:38:12.139Z,13.67
2019-03-12T05:40:40.696Z,7.73
2019-03-12T05:43:09.241Z,10.60
2019-03-12T05:45:37.736Z,8.83
2019-03-12T05:48:06.299Z,6.67
2019-03-12T05:50:34.859Z,8.58
2019-03-12T05:53:08.933Z,5.67
2019-03-12T05:55:37.493Z,11.22
2019-03-12T05:58:05.957Z,6.35
2019-03-12T06:00:34.439Z,8.17
2019-03-12T06:03:03.001Z,7.40
2019-03-12T06:05:31.569Z,5.70
2019-03-12T06:08:00.108Z,7.37
2019-03-12T06:10:28.602Z,4.50
2019-03-12T06:12:57.070Z,6.35
2019-03-12T06:15:25.654Z,6.43
2019-03-12T06:17:54.217Z,7.40
2019-03-12T06:20:22.749Z,5.72
2019-03-12T06:22:51.238Z,8.80
2019-03-12T06:25:19.815Z,6.15
2019-03-12T06:27:48.357Z,5.67
2019-03-12T06:30:20.409Z,4.85
2019-03-12T06:32:59.586Z,6.75
2019-03-12T06:35:32.727Z,4.10
2019-03-12T06:38:02.894Z,6.58
2019-03-12T06:40:38.788Z,4.70
2019-03-12T06:43:14.681Z,10.03
2019-03-12T06:45:50.873Z,9.25
2019-03-12T06:48:21.069Z,3.90
2019-03-12T06:50:56.949Z,9.30
2019-03-12T06:53:42.545Z,8.60
2019-03-12T06:56:13.261Z,6.70
2019-03-12T06:58:43.395Z,4.75
2019-03-12T07:01:13.640Z,6.90
2019-03-12T07:03:46.755Z,6.92
2019-03-12T07:06:22.683Z,6.58
2019-03-12T07:09:08.041Z,6.50
2019-03-12T07:11:41.204Z,6.17
2019-03-12T07:14:22.550Z,4.27
2019-03-12T07:17:01.141Z,5.87
2019-03-12T07:19:37.321Z,5.50
2019-03-12T07:22:10.362Z,5.45
2019-03-12T07:24:52.364Z,5.80
2019-03-12T07:27:25.446Z,5.33
2019-03-12T07:30:04.345Z,5.10
2019-03-12T07:32:43.430Z,5.05
2019-03-12T07:35:19.123Z,4.53
2019-03-12T07:37:49.317Z,6.53
2019-03-12T07:40:22.190Z,4.50
2019-03-12T07:42:55.272Z,4.70
2019-03-12T07:45:25.689Z,5.50
2019-03-12T07:48:01.401Z,3.50
2019-03-12T07:50:31.573Z,3.83
2019-03-12T07:53:07.385Z,5.58
2019-03-12T07:55:40.425Z,4.00
2019-03-12T07:58:10.623Z,5.37
2019-03-12T08:00:43.507Z,4.20
2019-03-12T08:03:29.507Z,6.37
2019-03-12T08:06:11.570Z,3.80
2019-03-12T08:08:41.761Z,6.03
2019-03-12T08:11:23.426Z,6.90
2019-03-12T08:13:53.635Z,5.30
2019-03-12T08:16:36.029Z,5.20
2019-03-12T08:19:22.446Z,4.07
2019-03-12T08:21:55.445Z,6.97
2019-03-12T08:24:31.613Z,4.90
2019-03-12T08:27:10.698Z,5.58
2019-03-12T08:29:43.813Z,3.35
2019-03-12T08:32:19.673Z,4.63
2019-03-12T08:34:52.577Z,3.97
2019-03-12T08:37:31.310Z,5.20
2019-03-12T08:40:07.230Z,5.08
2019-03-12T08:42:54.446Z,3.97
2019-03-12T08:45:27.527Z,5.90
2019-03-12T08:48:06.880Z,7.87
2019-03-12T08:50:42.885Z,5.20
2019-03-12T08:53:21.450Z,4.07
2019-03-12T08:56:07.321Z,6.93
2019-03-12T08:58:43.473Z,5.40
2019-03-12T09:01:13.729Z,5.33
2019-03-12T09:04:00.156Z,4.43
2019-03-12T09:06:36.029Z,6.33
2019-03-12T09:09:20.293Z,4.27
2019-03-12T09:11:53.122Z,6.62
2019-03-12T09:14:39.820Z,3.12
2019-03-12T09:17:09.948Z,6.03
2019-03-12T09:19:58.033Z,5.70
2019-03-12T09:22:37.244Z,6.00
2019-03-12T09:25:18.537Z,4.47
2019-03-12T09:27:54.365Z,5.78
2019-03-12T09:30:24.513Z,4.70
2019-03-12T09:32:57.415Z,4.42
2019-03-12T09:35:27.626Z,5.30
2019-03-12T09:37:57.725Z,2.67
2019-03-12T09:40:27.853Z,3.97
2019-03-12T09:43:03.843Z,4.15
2019-03-12T09:45:50.404Z,5.42
2019-03-12T09:48:32.426Z,5.58
2019-03-12T09:51:18.643Z,4.47
2019-03-12T09:53:48.836Z,4.92
2019-03-12T09:56:21.734Z,3.08
2019-03-12T09:58:54.627Z,5.92
2019-03-12T10:01:33.629Z,3.25
2019-03-12T10:04:03.794Z,3.50
2019-03-12T10:06:36.788Z,4.60
2019-03-12T10:09:10.095Z,3.30
2019-03-12T10:11:46.288Z,3.00
2019-03-12T10:14:16.418Z,3.60
2019-03-12T10:16:49.797Z,5.22
2019-03-12T10:19:25.961Z,6.15
2019-03-12T10:21:56.137Z,4.25
2019-03-12T10:24:29.075Z,3.60
2019-03-12T10:26:59.347Z,4.05
2019-03-12T10:29:45.774Z,5.40
2019-03-12T10:32:32.370Z,3.50
2019-03-12T10:35:02.571Z,3.25
2019-03-12T10:37:33.138Z,3.37
2019-03-12T10:40:07.290Z,5.15
2019-03-12T10:42:43.076Z,4.95
2019-03-12T10:45:14.125Z,2.55
2019-03-12T10:47:47.188Z,3.87
2019-03-12T10:50:15.994Z,2.77
2019-03-12T10:52:44.629Z,7.83
2019-03-12T10:55:14.033Z,4.75
2019-03-12T10:57:42.665Z,5.53
2019-03-12T11:00:18.907Z,4.83
2019-03-12T11:02:47.447Z,4.37
2019-03-12T11:05:16.739Z,3.00
2019-03-12T11:07:45.709Z,4.37
2019-03-12T11:10:18.819Z,3.60
2019-03-12T11:12:47.546Z,2.98
2019-03-12T11:15:16.845Z,2.60
2019-03-12T11:17:49.993Z,5.10
2019-03-12T11:20:23.453Z,2.10
2019-03-12T11:22:51.998Z,3.05
2019-03-12T11:25:27.088Z,2.80
2019-03-12T11:27:50.882Z,3.13
2019-03-12T11:30:20.182Z,1.90
2019-03-12T11:32:48.799Z,2.03
2019-03-12T11:35:17.539Z,2.92
2019-03-12T11:37:46.156Z,1.20
2019-03-12T11:40:30.383Z,2.80
2019-03-12T11:42:55.941Z,2.50
2019-03-12T11:45:35.663Z,2.40
2019-03-12T11:47:54.858Z,3.52
2019-03-12T11:50:24.661Z,2.83
2019-03-12T11:52:57.087Z,3.00
2019-03-12T11:55:23.462Z,1.87
2019-03-12T11:57:52.055Z,2.02
2019-03-12T12:00:26.868Z,2.60
2019-03-12T12:03:00.355Z,2.77
2019-03-12T12:05:25.774Z,2.08
2019-03-12T12:07:54.375Z,2.27
2019-03-12T12:10:23.034Z,1.52
2019-03-12T12:12:51.784Z,2.08
2019-03-12T12:15:20.325Z,2.40
2019-03-12T12:17:49.561Z,3.20
2019-03-12T12:20:28.904Z,2.92
2019-03-12T12:22:48.633Z,2.40
2019-03-12T12:25:20.481Z,2.57
2019-03-12T12:27:49.319Z,2.00
2019-03-12T12:30:20.068Z,2.50
2019-03-12T12:32:48.564Z,1.77
2019-03-12T12:35:17.286Z,2.20
2019-03-12T12:37:45.923Z,2.95
2019-03-12T12:40:19.209Z,2.08
2019-03-12T12:42:47.697Z,1.52
2019-03-12T12:45:24.926Z,1.20
2019-03-12T12:47:53.642Z,2.20
2019-03-12T12:50:22.584Z,2.40
2019-03-12T12:52:51.143Z,2.40
2019-03-12T12:55:19.695Z,1.60
2019-03-12T12:57:48.465Z,2.40
2019-03-12T13:00:21.480Z,2.10
2019-03-12T13:02:50.117Z,1.90
2019-03-12T13:05:18.724Z,1.50
2019-03-12T13:07:47.294Z,2.17
2019-03-12T13:10:27.445Z,2.17
2019-03-12T13:12:56.383Z,2.47
2019-03-12T13:15:25.096Z,3.50
2019-03-12T13:17:53.762Z,3.00
2019-03-12T13:20:22.292Z,2.70
2019-03-12T13:22:51.144Z,2.90
2019-03-12T13:25:19.913Z,2.50
2019-03-12T13:27:48.466Z,2.33
2019-03-12T13:30:21.974Z,3.20
2019-03-12T13:32:50.614Z,3.53
2019-03-12T13:35:20.911Z,2.80
2019-03-12T13:37:49.894Z,2.90
2019-03-12T13:40:21.614Z,2.55
2019-03-12T13:42:50.420Z,3.90
2019-03-12T13:45:27.910Z,2.98
2019-03-12T13:47:56.776Z,4.40
2019-03-12T13:50:25.452Z,3.30
2019-03-12T13:52:54.225Z,3.62
2019-03-12T13:55:22.851Z,3.05
2019-03-12T13:57:51.571Z,2.87
2019-03-12T14:00:28.142Z,2.27
2019-03-12T14:02:56.781Z,3.03
2019-03-12T14:05:25.322Z,5.00
2019-03-12T14:07:53.894Z,2.85
2019-03-12T14:10:25.996Z,4.30
2019-03-12T14:12:56.593Z,4.10
2019-03-12T14:15:30.150Z,5.13
2019-03-12T14:17:58.804Z,7.50
2019-03-12T14:21:00.310Z,5.72
2019-03-12T14:23:32.189Z,5.00
2019-03-12T14:26:00.724Z,4.20
2019-03-12T14:28:29.301Z,3.15
2019-03-12T14:30:58.242Z,4.62
2019-03-12T14:33:27.048Z,7.37
2019-03-12T14:35:55.662Z,3.87
2019-03-12T14:38:24.154Z,4.92
2019-03-12T14:40:52.767Z,4.30
2019-03-12T14:43:21.332Z,2.08
2019-03-12T14:45:52.789Z,2.40
2019-03-12T14:48:40.722Z,3.00
2019-03-12T14:51:15.186Z,3.58
2019-03-12T14:53:46.225Z,2.70
2019-03-12T14:56:14.774Z,1.98
2019-03-12T14:58:43.273Z,3.55
2019-03-12T15:01:11.949Z,2.95
2019-03-12T15:03:40.456Z,3.00
2019-03-12T15:06:09.088Z,2.33
2019-03-12T15:08:37.821Z,3.10
2019-03-12T15:11:06.364Z,2.00
2019-03-12T15:13:34.857Z,2.83
2019-03-12T15:16:03.461Z,3.00
2019-03-12T15:18:31.967Z,2.67
2019-03-12T15:21:00.513Z,3.07
2019-03-12T15:23:29.109Z,2.70
2019-03-12T15:25:57.770Z,3.07
2019-03-12T15:28:26.328Z,2.55
2019-03-12T15:30:54.801Z,2.50
2019-03-12T15:33:23.373Z,2.50
2019-03-12T15:35:51.848Z,3.70
2019-03-12T15:38:20.415Z,2.27
2019-03-12T15:40:48.949Z,2.30
2019-03-12T15:43:17.580Z,2.47
2019-03-12T15:45:46.141Z,4.60
2019-03-12T15:48:14.604Z,2.77
2019-03-12T15:50:43.112Z,2.60
2019-03-12T15:53:11.653Z,2.05
2019-03-12T15:55:40.220Z,2.63
2019-03-12T15:58:08.770Z,2.87
2019-03-12T16:00:37.333Z,3.17
2019-03-12T16:03:05.990Z,3.73
2019-03-12T16:05:34.556Z,3.87
2019-03-12T16:08:03.085Z,2.50
2019-03-12T16:10:31.581Z,4.12
2019-03-12T16:13:00.127Z,2.27
2019-03-12T16:15:28.952Z,2.73
2019-03-12T16:17:57.757Z,3.03
2019-03-12T16:20:26.324Z,3.33
2019-03-12T16:22:54.864Z,2.80
2019-03-12T16:25:23.358Z,2.95
2019-03-12T16:27:51.901Z,4.27
2019-03-12T16:30:21.613Z,4.03
2019-03-12T16:32:50.213Z,2.70
2019-03-12T16:35:18.859Z,2.60
2019-03-12T16:37:47.720Z,4.60
2019-03-12T16:40:26.547Z,3.13
2019-03-12T16:42:55.156Z,3.67
2019-03-12T16:45:23.718Z,3.22
2019-03-12T16:47:52.465Z,3.72
2019-03-12T16:50:21.172Z,3.15
2019-03-12T16:52:49.720Z,3.83
2019-03-12T16:55:19.116Z,3.93
2019-03-12T16:57:47.662Z,4.53
2019-03-12T17:00:20.924Z,4.95
2019-03-12T17:02:49.449Z,3.37
2019-03-12T17:05:18.103Z,3.52
2019-03-12T17:07:46.648Z,5.67
2019-03-12T17:10:22.330Z,3.67
2019-03-12T17:12:50.941Z,4.93
2019-03-12T17:15:30.010Z,3.95
2019-03-12T17:17:58.622Z,4.27
2019-03-12T17:20:27.262Z,3.83
2019-03-12T17:22:56.200Z,4.05
2019-03-12T17:25:24.759Z,4.85
2019-03-12T17:27:53.300Z,3.90
2019-03-12T17:30:22.737Z,3.57
2019-03-12T17:32:51.338Z,4.72
2019-03-12T17:35:31.677Z,4.97
2019-03-12T17:38:00.284Z,3.93
2019-03-12T17:40:28.943Z,3.83
2019-03-12T17:42:57.482Z,2.33
2019-03-12T17:45:26.442Z,1.77
2019-03-12T17:47:55.018Z,1.80
2019-03-12T17:50:23.576Z,1.90
2019-03-12T17:52:52.125Z,3.80
2019-03-12T17:55:20.752Z,2.33
2019-03-12T17:57:50.970Z,3.30
2019-03-12T18:00:29.103Z,3.27
2019-03-12T18:02:57.649Z,3.72
2019-03-12T18:05:26.212Z,2.40
2019-03-12T18:07:54.792Z,2.75
2019-03-12T18:10:23.345Z,2.30
2019-03-12T18:12:51.990Z,3.18
2019-03-12T18:15:21.280Z,2.77
2019-03-12T18:17:49.913Z,3.33
2019-03-12T18:20:20.696Z,4.60
2019-03-12T18:22:49.196Z,5.25
2019-03-12T18:25:26.715Z,2.70
2019-03-12T18:27:55.273Z,3.42
2019-03-12T18:30:23.742Z,3.00
2019-03-12T18:32:52.554Z,3.20
2019-03-12T18:35:21.098Z,3.60
2019-03-12T18:37:49.659Z,3.77
2019-03-12T18:40:22.949Z,3.92
2019-03-12T18:42:51.482Z,4.00
2019-03-12T18:45:24.365Z,3.73
2019-03-12T18:47:52.930Z,2.50
2019-03-12T18:50:21.776Z,2.58
2019-03-12T18:52:50.415Z,3.40
2019-03-12T18:55:30.933Z,4.50
2019-03-12T18:57:59.413Z,4.90
2019-03-12T19:00:27.940Z,3.50
2019-03-12T19:02:56.577Z,3.62
2019-03-12T19:05:27.999Z,4.73
2019-03-12T19:07:55.267Z,4.10
2019-03-12T19:10:23.869Z,2.70
2019-03-12T19:12:52.364Z,2.40
2019-03-12T19:15:20.957Z,4.40
2019-03-12T19:17:49.592Z,2.77
2019-03-12T19:20:18.975Z,4.10
2019-03-12T19:22:47.546Z,2.97
2019-03-12T19:25:18.997Z,2.83
2019-03-12T19:27:59.165Z,2.50
2019-03-12T19:30:19.122Z,3.62
2019-03-12T19:32:49.401Z,2.83
2019-03-12T19:35:20.871Z,5.43
2019-03-12T19:37:49.477Z,4.17
2019-03-12T19:40:44.513Z,3.45
2019-03-12T19:43:13.239Z,3.53
2019-03-12T19:45:41.807Z,5.58
2019-03-12T19:48:10.418Z,5.77
2019-03-12T19:50:39.092Z,4.65
2019-03-12T19:53:07.649Z,4.60
2019-03-12T19:55:39.093Z,6.65
2019-03-12T19:58:07.733Z,5.37
2019-03-12T20:00:36.341Z,3.85
2019-03-12T20:03:11.766Z,3.40
2019-03-12T20:05:35.614Z,4.50
2019-03-12T20:08:04.337Z,2.50
2019-03-12T20:10:51.086Z,2.60
2019-03-12T20:13:37.555Z,3.62
2019-03-12T20:16:42.569Z,3.05
2019-03-12T20:19:39.892Z,3.60
2019-03-12T20:22:20.829Z,3.30
2019-03-12T20:25:11.977Z,2.45
2019-03-12T20:27:52.866Z,2.55
2019-03-12T20:30:36.612Z,3.20
2019-03-12T20:33:11.289Z,20.30
2019-03-12T20:36:16.651Z,11.30
2019-03-12T20:38:54.069Z,2.58
2019-03-12T20:41:59.484Z,6.58
2019-03-12T20:45:06.009Z,3.20
2019-03-12T20:48:09.902Z,4.63
2019-03-12T20:50:58.518Z,4.40
2019-03-12T20:53:57.646Z,3.85
2019-03-12T20:57:02.483Z,2.83
2019-03-12T20:59:40.054Z,2.65
2019-03-12T21:02:20.938Z,3.42
2019-03-12T21:05:12.066Z,2.10
2019-03-12T21:08:09.389Z,2.10
2019-03-12T21:11:01.025Z,2.37
2019-03-12T21:14:01.689Z,2.80
2019-03-12T21:17:03.850Z,3.30
2019-03-12T21:20:10.539Z,1.77
2019-03-12T21:23:03.290Z,2.00
2019-03-12T21:25:55.656Z,2.70
2019-03-12T21:28:33.264Z,1.70
2019-03-12T21:31:01.830Z,3.60
2019-03-12T21:33:30.418Z,2.30
2019-03-12T21:35:58.962Z,3.15
2019-03-12T21:38:27.445Z,3.00
2019-03-12T21:40:55.931Z,1.87
2019-03-12T21:43:25.029Z,2.20
2019-03-12T21:45:53.591Z,1.70
2019-03-12T21:48:22.124Z,2.95
2019-03-12T21:50:50.623Z,2.45
2019-03-12T21:53:19.185Z,2.00
2019-03-12T21:55:47.920Z,2.35
2019-03-12T21:58:16.457Z,2.30
2019-03-12T22:00:45.050Z,2.27
2019-03-12T22:03:16.195Z,2.30
2019-03-12T22:05:43.830Z,1.80
2019-03-12T22:08:12.374Z,2.08
2019-03-12T22:10:40.928Z,2.60
2019-03-12T22:13:09.400Z,2.20
2019-03-12T22:15:38.033Z,3.23
2019-03-12T22:18:06.640Z,1.55
2019-03-12T22:20:35.274Z,1.60
2019-03-12T22:23:05.518Z,1.70
2019-03-12T22:25:34.193Z,2.12
2019-03-12T22:28:02.725Z,2.20
2019-03-12T22:30:31.282Z,2.20
2019-03-12T22:32:59.875Z,2.02
2019-03-12T22:35:28.517Z,2.15
2019-03-12T22:37:57.434Z,1.60
2019-03-12T22:40:26.094Z,2.08
2019-03-12T22:42:54.638Z,2.05
2019-03-12T22:45:23.212Z,1.90
2019-03-12T22:47:51.823Z,1.87
2019-03-12T22:50:20.442Z,3.25
2019-03-12T22:52:48.998Z,3.42
2019-03-12T22:55:17.560Z,1.83
2019-03-12T22:57:46.153Z,1.60
2019-03-12T23:00:17.325Z,2.50
2019-03-12T23:02:45.886Z,2.70
2019-03-12T23:05:14.960Z,2.50
2019-03-12T23:07:43.604Z,2.40
2019-03-12T23:10:13.676Z,2.90
2019-03-12T23:12:42.145Z,2.20
2019-03-12T23:15:16.589Z,2.30
2019-03-12T23:17:45.129Z,1.90
2019-03-12T23:20:16.606Z,1.92
2019-03-12T23:22:45.314Z,2.47
2019-03-12T23:25:14.218Z,2.05
2019-03-12T23:27:42.779Z,1.85
2019-03-12T23:30:20.528Z,1.60
2019-03-12T23:32:48.981Z,2.05
2019-03-12T23:35:17.542Z,1.90
2019-03-12T23:37:46.126Z,3.42
2019-03-12T23:40:16.640Z,1.47
2019-03-12T23:42:45.112Z,5.22
2019-03-12T23:45:15.713Z,2.30
2019-03-12T23:47:45.870Z,1.72
2019-03-12T23:50:15.981Z,2.40
2019-03-12T23:52:45.007Z,2.40
2019-03-12T23:55:15.681Z,1.42
2019-03-12T23:57:44.470Z,2.80
